Time;durP1;ratioP1;P1;durP2;ratioP2;P2;SDS_P1;SDS_P2;PMS_P1;PMS_P2;Temp;Humidity;BMP_temperature;BMP_pressure;BME280_temperature;BME280_humidity;BME280_pressure;Samples;Min_cycle;Max_cycle;Signal;HPM_P1;HPM_P2
2023/02/12 00:01:22;;;;;;;27.77;23.10;;;9.00;1.00;;;;;;5097797;28;20510;-39
2023/02/12 00:03:48;;;;;;;29.53;23.80;;;9.00;1.00;;;;;;5098002;28;20415;-39
2023/02/12 00:06:13;;;;;;;29.67;25.03;;;8.90;1.00;;;;;;5096608;28;20415;-40
2023/02/12 00:08:40;;;;;;;27.13;24.33;;;9.00;1.00;;;;;;5097425;28;20208;-39
2023/02/12 00:11:11;;;;;;;27.97;23.30;;;9.00;1.00;;;;;;5097782;28;20515;-40
2023/02/12 00:13:37;;;;;;;25.00;22.33;;;9.00;1.00;;;;;;5097160;28;20260;-41
2023/02/12 00:16:11;;;;;;;27.00;23.53;;;8.90;1.00;;;;;;5097119;28;20502;-40
2023/02/12 00:18:37;;;;;;;26.77;23.83;;;8.90;1.00;;;;;;5095431;28;20423;-40
2023/02/12 00:21:03;;;;;;;28.37;24.70;;;8.90;1.00;;;;;;5095506;28;20410;-40
2023/02/12 00:23:29;;;;;;;28.13;23.57;;;8.90;1.00;;;;;;5097286;28;20799;-41
2023/02/12 00:25:55;;;;;;;29.10;24.90;;;8.90;1.00;;;;;;5098356;28;20539;-39
2023/02/12 00:28:21;;;;;;;27.53;24.00;;;8.90;1.00;;;;;;5098294;28;20315;-40
2023/02/12 00:30:46;;;;;;;26.03;23.20;;;8.90;1.00;;;;;;5096654;28;20474;-41
2023/02/12 00:33:12;;;;;;;27.57;24.67;;;8.90;1.00;;;;;;5096260;28;20446;-39
2023/02/12 00:35:38;;;;;;;26.77;23.70;;;8.80;1.00;;;;;;5095787;28;20188;-43
2023/02/12 00:38:03;;;;;;;27.50;23.83;;;8.80;1.00;;;;;;5096436;28;20180;-40
2023/02/12 00:40:29;;;;;;;27.43;23.90;;;8.80;1.00;;;;;;5097803;28;20275;-39
2023/02/12 00:42:55;;;;;;;24.83;22.33;;;8.80;1.00;;;;;;5096853;28;20199;-40
2023/02/12 00:45:20;;;;;;;29.77;23.87;;;8.80;1.00;;;;;;5095403;28;20569;-39
2023/02/12 00:47:46;;;;;;;29.17;24.30;;;8.80;1.00;;;;;;5096636;28;20245;-40
2023/02/12 00:50:12;;;;;;;25.93;23.10;;;8.80;1.00;;;;;;5097281;28;20180;-39
2023/02/12 00:52:37;;;;;;;27.87;24.50;;;8.80;1.00;;;;;;5096778;28;20575;-39
2023/02/12 00:55:03;;;;;;;25.93;23.20;;;8.80;1.00;;;;;;5095624;28;20177;-41
2023/02/12 00:57:29;;;;;;;30.90;25.00;;;8.80;1.00;;;;;;5096962;28;20177;-40
2023/02/12 00:59:55;;;;;;;28.20;23.73;;;8.80;1.00;;;;;;5097090;28;20509;-40
2023/02/12 01:02:20;;;;;;;26.03;23.23;;;8.70;1.00;;;;;;5097150;28;20181;-42
2023/02/12 01:04:46;;;;;;;28.70;23.67;;;8.80;1.00;;;;;;5097527;28;20184;-41
2023/02/12 01:07:12;;;;;;;29.93;24.73;;;8.70;1.00;;;;;;5097477;28;20219;-40
2023/02/12 01:09:38;;;;;;;30.47;25.07;;;8.70;1.00;;;;;;5097620;28;20180;-42
2023/02/12 01:12:04;;;;;;;29.63;24.00;;;8.70;1.00;;;;;;5097528;28;20182;-40
2023/02/12 01:14:30;;;;;;;30.93;24.43;;;8.70;1.00;;;;;;5097874;28;20665;-41
2023/02/12 01:16:55;;;;;;;28.50;25.13;;;8.60;1.00;;;;;;5097620;28;20441;-41
2023/02/12 01:19:21;;;;;;;27.90;24.10;;;8.60;1.00;;;;;;5097395;28;20188;-40
2023/02/12 01:21:46;;;;;;;29.70;24.83;;;8.60;1.00;;;;;;5078912;28;20227;-42
2023/02/12 01:24:12;;;;;;;26.43;23.37;;;8.60;1.00;;;;;;5095724;28;20572;-41
2023/02/12 01:26:38;;;;;;;28.50;24.10;;;8.60;1.00;;;;;;5095053;28;20212;-40
2023/02/12 01:29:05;;;;;;;28.40;25.23;;;8.60;1.00;;;;;;5096349;28;20237;-39
2023/02/12 01:31:36;;;;;;;29.00;24.67;;;8.60;2.40;;;;;;5095839;28;20263;-40
2023/02/12 01:34:01;;;;;;;27.67;24.10;;;8.60;1.20;;;;;;5094442;28;20446;-42
2023/02/12 01:36:29;;;;;;;29.60;26.40;;;8.60;3.80;;;;;;5096095;28;20698;-39
2023/02/12 01:38:56;;;;;;;30.43;26.07;;;8.60;5.80;;;;;;5097270;28;20504;-39
2023/02/12 01:41:37;;;;;;;30.43;25.73;;;8.60;9.40;;;;;;5096152;28;20421;-40
2023/02/12 01:44:20;;;;;;;30.53;26.87;;;8.60;11.10;;;;;;5096702;28;20414;-40
2023/02/12 01:46:48;;;;;;;28.10;23.80;;;8.60;14.50;;;;;;5096755;28;20566;-40
2023/02/12 01:49:23;;;;;;;31.17;24.90;;;8.60;16.40;;;;;;5097259;28;20418;-40
2023/02/12 01:51:53;;;;;;;27.83;24.40;;;8.60;16.50;;;;;;5094334;28;20473;-39
2023/02/12 01:54:19;;;;;;;28.40;25.30;;;8.60;17.00;;;;;;5095114;28;20422;-40
2023/02/12 01:56:45;;;;;;;33.07;26.77;;;8.60;22.10;;;;;;5095564;28;20503;-41
2023/02/12 01:59:12;;;;;;;29.53;25.20;;;8.60;26.00;;;;;;5078676;28;20463;-39
2023/02/12 02:01:38;;;;;;;29.60;26.03;;;8.60;30.10;;;;;;5096076;28;20433;-40
2023/02/12 02:04:07;;;;;;;26.90;24.00;;;8.60;33.80;;;;;;5095449;28;20831;-41
2023/02/12 02:06:43;;;;;;;29.17;25.90;;;8.50;38.20;;;;;;5094118;28;20922;-39
2023/02/12 02:09:10;;;;;;;30.07;24.70;;;8.60;42.40;;;;;;5094063;28;20417;-39
2023/02/12 02:14:31;;;;;;;31.13;25.03;;;8.60;57.50;;;;;;5093578;28;20497;-41
2023/02/12 02:17:08;;;;;;;30.13;25.37;;;8.50;51.30;;;;;;5094051;28;20536;-41
2023/02/12 02:20:01;;;;;;;28.17;24.57;;;8.50;58.70;;;;;;5094529;28;20410;-40
2023/02/12 02:22:36;;;;;;;29.97;25.10;;;8.50;66.60;;;;;;5095405;28;20776;-39
2023/02/12 02:25:08;;;;;;;28.43;24.27;;;8.60;74.90;;;;;;5094424;28;20529;-41
2023/02/12 02:27:39;;;;;;;27.33;24.10;;;8.50;90.70;;;;;;5095996;28;20470;-40
2023/02/12 02:30:30;;;;;;;29.90;24.77;;;8.50;95.50;;;;;;5095380;28;20464;-39
2023/02/12 02:33:18;;;;;;;28.73;23.07;;;8.50;97.30;;;;;;5096135;28;20520;-37
2023/02/12 02:35:50;;;;;;;28.73;24.20;;;8.50;99.90;;;;;;5095326;28;20426;-39
2023/02/12 02:38:22;;;;;;;29.63;25.60;;;8.40;99.90;;;;;;5098596;28;20422;-39
2023/02/12 02:40:58;;;;;;;29.00;25.07;;;8.40;99.90;;;;;;5099550;28;20733;-38
2023/02/12 02:43:31;;;;;;;28.40;24.80;;;8.40;99.90;;;;;;5098570;28;20808;-39
2023/02/12 02:46:08;;;;;;;29.60;24.93;;;8.40;99.90;;;;;;5099390;28;20831;-39
2023/02/12 02:48:45;;;;;;;27.00;24.10;;;8.40;99.90;;;;;;5097857;28;20434;-40
2023/02/12 02:51:32;;;;;;;28.30;25.23;;;8.40;99.90;;;;;;5097703;28;20421;-39
2023/02/12 02:54:05;;;;;;;28.13;24.67;;;8.40;99.90;;;;;;5098588;28;20419;-39
2023/02/12 02:56:32;;;;;;;27.57;24.60;;;8.40;99.90;;;;;;5100167;28;20413;-39
2023/02/12 02:59:21;;;;;;;26.80;23.10;;;8.40;99.90;;;;;;5100271;28;20426;-39
2023/02/12 03:01:53;;;;;;;27.67;24.77;;;8.30;99.90;;;;;;5099703;28;20513;-40
2023/02/12 03:04:43;;;;;;;30.03;25.10;;;8.30;99.90;;;;;;5100420;28;20414;-41
2023/02/12 03:07:19;;;;;;;26.80;23.20;;;8.40;99.90;;;;;;5084103;28;20488;-40
2023/02/12 03:10:01;;;;;;;29.27;25.00;;;8.30;99.90;;;;;;5099125;28;20410;-39
2023/02/12 03:12:40;;;;;;;27.73;24.73;;;8.30;99.90;;;;;;5099186;28;20422;-39
2023/02/12 03:15:16;;;;;;;29.60;24.80;;;8.30;99.90;;;;;;5098757;28;20471;-38
2023/02/12 03:17:47;;;;;;;28.33;24.33;;;8.30;99.90;;;;;;5099972;28;20422;-39
2023/02/12 03:20:23;;;;;;;29.43;24.93;;;8.30;99.90;;;;;;5098818;28;20616;-39
2023/02/12 03:22:57;;;;;;;30.70;24.93;;;8.30;99.90;;;;;;5100136;28;20498;-39
2023/02/12 03:25:34;;;;;;;28.90;23.80;;;8.30;99.90;;;;;;5098808;28;20468;-40
2023/02/12 03:28:33;;;;;;;33.73;26.93;;;8.30;99.90;;;;;;5099885;28;20476;-41
2023/02/12 03:31:33;;;;;;;31.87;25.80;;;8.30;99.90;;;;;;5082287;28;20449;-41
2023/02/12 03:34:06;;;;;;;28.33;25.10;;;8.30;99.90;;;;;;5100018;28;20425;-40
2023/02/12 03:37:04;;;;;;;15.80;12.53;;;8.20;99.90;;;;;;5100863;28;20410;-41
2023/02/12 03:39:42;;;;;;;7.90;6.10;;;8.40;99.90;;;;;;5089213;28;20429;-41
2023/02/12 03:42:26;;;;;;;11.80;8.63;;;9.30;99.90;;;;;;5098645;28;20516;-40
2023/02/12 03:45:09;;;;;;;18.50;15.30;;;10.10;86.20;;;;;;5098196;28;20406;-39
2023/02/12 03:47:40;;;;;;;22.07;19.67;;;10.40;99.90;;;;;;5097261;28;20469;-39
2023/02/12 03:50:09;;;;;;;25.87;20.83;;;10.40;99.90;;;;;;5098248;28;20421;-39
2023/02/12 03:52:35;;;;;;;26.37;22.40;;;10.20;99.90;;;;;;5097980;28;20815;-40
2023/02/12 03:55:01;;;;;;;27.03;23.77;;;10.00;99.90;;;;;;5097605;28;20448;-39
2023/02/12 03:57:33;;;;;;;26.43;23.47;;;9.80;99.90;;;;;;5099462;28;20169;-39
2023/02/12 04:00:06;;;;;;;29.40;23.53;;;9.60;1.00;;;;;;5098436;28;20411;-39
2023/02/12 04:02:32;;;;;;;27.10;23.67;;;9.40;1.00;;;;;;5099540;28;20434;-38
2023/02/12 04:05:04;;;;;;;28.83;24.33;;;9.30;1.00;;;;;;5099153;28;20425;-39
2023/02/12 04:07:30;;;;;;;28.87;24.30;;;9.20;1.00;;;;;;5099344;28;20464;-41
2023/02/12 04:09:55;;;;;;;31.03;25.20;;;9.00;1.00;;;;;;5099291;28;20426;-39
2023/02/12 04:12:21;;;;;;;30.53;25.07;;;9.00;1.00;;;;;;5099043;28;20204;-39
2023/02/12 04:14:54;;;;;;;27.33;24.33;;;8.90;1.00;;;;;;5099063;28;20187;-40
2023/02/12 04:17:25;;;;;;;27.90;24.43;;;8.80;99.90;;;;;;5081395;28;20246;-42
2023/02/12 04:20:13;;;;;;;28.20;25.13;;;8.70;99.90;;;;;;5099019;28;20422;-39
2023/02/12 04:22:52;;;;;;;30.17;25.30;;;8.70;99.90;;;;;;5098857;28;20429;-41
2023/02/12 04:25:46;;;;;;;28.43;25.40;;;8.70;99.90;;;;;;5098239;28;20516;-38
2023/02/12 04:28:14;;;;;;;28.27;25.37;;;8.60;99.90;;;;;;5099066;28;20770;-39
2023/02/12 04:30:59;;;;;;;32.17;27.50;;;8.60;99.90;;;;;;5098457;28;20771;-39
2023/02/12 04:33:27;;;;;;;31.60;26.00;;;8.50;99.90;;;;;;5098653;28;20874;-39
2023/02/12 04:36:08;;;;;;;28.60;24.90;;;8.50;1.00;;;;;;5098180;28;20427;-38
2023/02/12 04:38:41;;;;;;;30.10;26.93;;;8.50;1.00;;;;;;5097447;28;20487;-37
2023/02/12 04:41:07;;;;;;;28.63;24.80;;;8.40;1.00;;;;;;5097416;28;20456;-39
2023/02/12 04:43:35;;;;;;;29.50;25.43;;;8.40;1.00;;;;;;5097932;28;20430;-40
2023/02/12 04:46:02;;;;;;;28.10;24.73;;;8.40;1.00;;;;;;5097684;28;20448;-39
2023/02/12 04:48:27;;;;;;;30.43;26.20;;;8.40;1.00;;;;;;5098641;28;20794;-39
2023/02/12 04:50:53;;;;;;;29.87;26.57;;;8.30;1.00;;;;;;5097996;28;20429;-40
2023/02/12 04:53:19;;;;;;;28.53;24.37;;;8.30;1.00;;;;;;5098383;28;20172;-40
2023/02/12 04:55:46;;;;;;;32.87;27.53;;;8.30;1.00;;;;;;5097737;28;20200;-40
2023/02/12 04:58:11;;;;;;;29.57;26.50;;;8.30;1.00;;;;;;5097671;28;20196;-40
2023/02/12 05:00:37;;;;;;;33.60;28.13;;;8.30;1.00;;;;;;5097478;28;20700;-39
2023/02/12 05:03:03;;;;;;;33.60;28.50;;;8.20;1.00;;;;;;5097717;28;20181;-40
2023/02/12 05:05:29;;;;;;;36.80;28.60;;;8.20;1.00;;;;;;5098249;28;20449;-39
2023/02/12 05:07:55;;;;;;;33.03;29.00;;;8.20;1.00;;;;;;5098198;28;20557;-40
2023/02/12 05:10:20;;;;;;;32.90;28.87;;;8.20;1.00;;;;;;5097995;28;20189;-41
2023/02/12 05:12:46;;;;;;;34.17;29.23;;;8.20;1.00;;;;;;5098275;28;20200;-41
2023/02/12 05:15:11;;;;;;;32.63;28.40;;;8.20;1.00;;;;;;5097867;28;20176;-39
2023/02/12 05:17:37;;;;;;;35.57;29.07;;;8.10;1.00;;;;;;5098114;28;20645;-38
2023/02/12 05:20:04;;;;;;;39.47;31.53;;;8.10;1.00;;;;;;5097549;28;20191;-38
2023/02/12 05:22:30;;;;;;;38.67;29.40;;;8.10;1.00;;;;;;5097942;28;20191;-40
2023/02/12 05:24:55;;;;;;;36.27;31.17;;;8.10;1.00;;;;;;5096660;28;20927;-40
2023/02/12 05:27:21;;;;;;;34.80;29.43;;;8.10;1.00;;;;;;5096892;28;20211;-38
2023/02/12 05:29:46;;;;;;;35.37;30.50;;;8.10;1.00;;;;;;5097390;28;20180;-40
2023/02/12 05:32:12;;;;;;;33.80;30.00;;;8.10;1.00;;;;;;5097375;28;20557;-39
2023/02/12 05:34:38;;;;;;;32.00;28.37;;;8.10;1.00;;;;;;5097970;28;20226;-40
2023/02/12 05:37:03;;;;;;;34.30;30.47;;;8.10;1.00;;;;;;5097992;28;20267;-40
2023/02/12 05:39:29;;;;;;;34.40;30.33;;;8.00;1.00;;;;;;5097314;28;20238;-40
2023/02/12 05:41:55;;;;;;;36.00;32.03;;;8.00;2.60;;;;;;5097189;28;20263;-40
2023/02/12 05:44:20;;;;;;;40.87;33.83;;;8.00;14.80;;;;;;5097277;28;20453;-39
2023/02/12 05:46:46;;;;;;;40.50;34.13;;;8.00;38.50;;;;;;5096830;28;20215;-41
2023/02/12 05:49:11;;;;;;;40.83;33.03;;;8.00;84.20;;;;;;5095764;28;20168;-39
2023/02/12 05:51:37;;;;;;;39.37;34.07;;;8.00;99.90;;;;;;5096080;28;20162;-40
2023/02/12 05:54:05;;;;;;;38.17;32.67;;;7.90;99.90;;;;;;5097106;28;20169;-39
2023/02/12 05:56:32;;;;;;;39.57;34.43;;;7.90;99.90;;;;;;5096890;28;20495;-41
2023/02/12 05:59:02;;;;;;;43.47;33.63;;;7.90;99.90;;;;;;5096548;28;20403;-38
2023/02/12 06:01:39;;;;;;;43.93;36.20;;;7.90;99.90;;;;;;5097489;28;20413;-39
2023/02/12 06:04:06;;;;;;;45.20;36.27;;;7.90;99.90;;;;;;5096254;28;20471;-39
2023/02/12 06:07:06;;;;;;;43.53;36.30;;;7.90;1.00;;;;;;5095392;28;20417;-40
2023/02/12 06:09:39;;;;;;;46.17;37.40;;;7.90;1.00;;;;;;5095201;28;20658;-39
2023/02/12 06:12:05;;;;;;;43.17;35.10;;;7.90;1.00;;;;;;5095384;28;20469;-39
2023/02/12 06:14:31;;;;;;;42.33;35.97;;;7.80;1.00;;;;;;5095098;28;20732;-40
2023/02/12 06:16:57;;;;;;;41.70;32.90;;;7.80;1.00;;;;;;5095540;28;20198;-41
2023/02/12 06:19:23;;;;;;;43.40;36.00;;;7.80;1.00;;;;;;5095811;28;20418;-40
2023/02/12 06:21:49;;;;;;;45.67;36.70;;;7.80;1.00;;;;;;5097143;28;20493;-40
2023/02/12 06:24:16;;;;;;;44.80;37.07;;;7.80;1.00;;;;;;5096749;28;20289;-41
2023/02/12 06:26:41;;;;;;;46.70;38.30;;;7.80;1.00;;;;;;5096558;28;20242;-39
2023/02/12 06:29:07;;;;;;;45.23;37.53;;;7.80;18.40;;;;;;5095862;28;20430;-39
2023/02/12 06:31:35;;;;;;;42.70;34.20;;;7.70;60.20;;;;;;5097110;28;20202;-40
2023/02/12 06:34:04;;;;;;;42.43;33.90;;;7.80;99.90;;;;;;5097084;28;20183;-40
2023/02/12 06:36:30;;;;;;;42.47;36.50;;;7.70;99.90;;;;;;5078867;28;20522;-39
2023/02/12 06:38:55;;;;;;;45.40;37.50;;;7.70;99.90;;;;;;5096357;28;20514;-39
2023/02/12 06:41:22;;;;;;;39.77;35.00;;;7.70;99.90;;;;;;5096235;28;20217;-41
2023/02/12 06:43:47;;;;;;;41.37;35.50;;;7.70;99.90;;;;;;5096212;28;20184;-39
2023/02/12 06:46:13;;;;;;;44.07;35.73;;;7.70;99.90;;;;;;5096197;28;20885;-40
2023/02/12 06:48:39;;;;;;;44.13;35.07;;;7.70;99.90;;;;;;5096158;28;20208;-39
2023/02/12 06:51:05;;;;;;;42.83;34.10;;;7.70;99.90;;;;;;5096880;28;20584;-39
2023/02/12 06:53:32;;;;;;;42.93;36.47;;;7.70;99.90;;;;;;5096721;28;20418;-39
2023/02/12 06:56:00;;;;;;;44.63;37.67;;;7.70;99.90;;;;;;5095319;28;20419;-39
2023/02/12 06:58:26;;;;;;;41.97;34.60;;;7.70;99.90;;;;;;5094677;28;20422;-39
2023/02/12 07:00:51;;;;;;;52.13;38.40;;;7.70;99.90;;;;;;5094815;28;20424;-39
2023/02/12 07:03:17;;;;;;;41.90;36.40;;;7.80;99.90;;;;;;5094773;28;20180;-40
2023/02/12 07:05:43;;;;;;;45.77;37.93;;;7.80;99.90;;;;;;5094814;28;20177;-38
2023/02/12 07:08:08;;;;;;;43.07;38.37;;;7.80;99.90;;;;;;5095084;28;20219;-39
2023/02/12 07:10:34;;;;;;;45.23;36.70;;;7.80;46.80;;;;;;5093481;28;20183;-39
2023/02/12 07:13:00;;;;;;;44.90;38.63;;;7.90;18.30;;;;;;5092412;28;20409;-40
2023/02/12 07:15:25;;;;;;;48.20;37.93;;;7.90;1.00;;;;;;5094067;28;20173;-39
2023/02/12 07:17:51;;;;;;;47.87;38.03;;;8.00;1.00;;;;;;5093735;28;20180;-39
2023/02/12 07:20:17;;;;;;;40.50;34.43;;;8.00;1.00;;;;;;5095355;28;20253;-39
2023/02/12 07:22:42;;;;;;;42.63;36.30;;;8.10;1.00;;;;;;5095692;28;20181;-40
2023/02/12 07:25:08;;;;;;;39.90;33.60;;;8.20;1.00;;;;;;5098387;28;20315;-39
2023/02/12 07:27:37;;;;;;;41.63;35.30;;;8.20;1.00;;;;;;5099229;28;20207;-41
2023/02/12 07:30:04;;;;;;;46.33;35.73;;;8.30;1.00;;;;;;5099677;28;20546;-38
2023/02/12 07:32:31;;;;;;;44.13;36.63;;;8.40;99.90;;;;;;5099673;28;20834;-38
2023/02/12 07:34:57;;;;;;;42.00;34.50;;;8.50;99.90;;;;;;5099576;28;20437;-40
2023/02/12 07:37:23;;;;;;;45.90;36.97;;;8.50;99.90;;;;;;5100718;28;20426;-38
2023/02/12 07:39:49;;;;;;;49.10;36.80;;;8.60;99.90;;;;;;5101438;28;20181;-40
2023/02/12 07:42:14;;;;;;;40.03;33.97;;;8.70;99.90;;;;;;5098721;28;20259;-42
2023/02/12 07:44:40;;;;;;;41.97;35.87;;;8.80;99.90;;;;;;5098701;28;20572;-39
2023/02/12 07:47:06;;;;;;;43.67;37.67;;;8.80;92.90;;;;;;5098352;28;20299;-40
2023/02/12 07:49:31;;;;;;;40.73;33.37;;;8.90;22.80;;;;;;5098801;28;20206;-40
2023/02/12 07:51:57;;;;;;;40.67;33.80;;;9.00;1.00;;;;;;5099235;28;20169;-40
2023/02/12 07:54:22;;;;;;;41.83;35.03;;;9.00;1.00;;;;;;5097417;28;20176;-40
2023/02/12 07:56:49;;;;;;;45.70;37.20;;;9.10;1.00;;;;;;5098927;28;20259;-40
2023/02/12 07:59:16;;;;;;;41.97;34.80;;;9.10;1.00;;;;;;5099529;28;20501;-40
2023/02/12 08:01:46;;;;;;;41.27;35.07;;;9.10;1.00;;;;;;5098969;28;20452;-39
2023/02/12 08:04:13;;;;;;;42.43;35.37;;;9.20;1.00;;;;;;5098454;28;20822;-39
2023/02/12 08:06:41;;;;;;;38.63;34.33;;;9.20;1.00;;;;;;5098657;28;20439;-40
2023/02/12 08:09:09;;;;;;;43.07;35.20;;;9.30;1.00;;;;;;5098110;28;20418;-39
2023/02/12 08:11:35;;;;;;;40.63;33.87;;;9.40;1.00;;;;;;5097016;28;20467;-39
2023/02/12 08:14:02;;;;;;;35.03;30.30;;;9.40;1.00;;;;;;5096239;28;20418;-38
2023/02/12 08:16:28;;;;;;;38.13;31.73;;;9.50;1.00;;;;;;5096503;28;20429;-40
2023/02/12 08:18:55;;;;;;;36.07;32.00;;;9.50;1.00;;;;;;5097202;28;20410;-39
2023/02/12 08:21:26;;;;;;;37.30;29.57;;;9.60;1.00;;;;;;5097112;28;20411;-39
2023/02/12 08:23:56;;;;;;;37.10;30.63;;;9.60;1.00;;;;;;5097619;28;20470;-40
2023/02/12 08:26:33;;;;;;;32.80;27.60;;;9.70;1.00;;;;;;5097172;28;20707;-40
2023/02/12 08:29:04;;;;;;;35.63;29.53;;;9.70;1.00;;;;;;5098066;28;20576;-39
2023/02/12 08:31:50;;;;;;;34.67;29.27;;;9.80;1.00;;;;;;5080867;28;20423;-40
2023/02/12 08:34:27;;;;;;;38.70;30.10;;;9.80;1.00;;;;;;5095414;28;20759;-41
2023/02/12 08:36:53;;;;;;;33.80;29.73;;;9.80;1.00;;;;;;5096254;28;20786;-39
2023/02/12 08:39:19;;;;;;;38.77;30.43;;;9.90;99.90;;;;;;5096960;28;20419;-42
2023/02/12 08:41:46;;;;;;;37.73;30.03;;;9.90;99.90;;;;;;5096445;28;20423;-41
2023/02/12 08:44:13;;;;;;;35.23;30.63;;;10.00;99.90;;;;;;5099357;28;20425;-39
2023/02/12 08:46:42;;;;;;;35.60;30.30;;;10.00;99.90;;;;;;5098018;28;20838;-39
2023/02/12 08:49:13;;;;;;;38.83;31.20;;;10.00;99.90;;;;;;5098095;28;20509;-39
2023/02/12 08:51:42;;;;;;;36.67;29.93;;;10.00;99.90;;;;;;5096001;28;20499;-40
2023/02/12 08:54:11;;;;;;;36.20;30.17;;;10.00;99.90;;;;;;5096204;28;20437;-40
2023/02/12 08:56:37;;;;;;;33.33;28.80;;;10.10;99.90;;;;;;5098324;28;20426;-40
2023/02/12 08:59:04;;;;;;;32.60;27.50;;;10.20;99.90;;;;;;5097549;28;20446;-39
2023/02/12 09:01:32;;;;;;;31.07;27.77;;;10.20;99.90;;;;;;5097465;28;20402;-39
2023/02/12 09:03:58;;;;;;;33.53;29.63;;;10.30;99.90;;;;;;5096348;28;20434;-40
2023/02/12 09:06:24;;;;;;;32.33;27.00;;;10.40;99.90;;;;;;5094026;28;20843;-38
2023/02/12 09:08:51;;;;;;;29.57;25.27;;;10.50;99.90;;;;;;5095520;28;20720;-39
2023/02/12 09:11:25;;;;;;;27.60;24.57;;;10.70;99.90;;;;;;5095804;28;20449;-38
2023/02/12 09:13:51;;;;;;;29.17;23.40;;;10.80;99.90;;;;;;5094153;28;20666;-39
2023/02/12 09:16:16;;;;;;;29.20;24.33;;;10.90;99.90;;;;;;5093220;28;20433;-41
2023/02/12 09:18:42;;;;;;;27.00;22.97;;;11.00;99.90;;;;;;5093801;28;20173;-41
2023/02/12 09:21:10;;;;;;;24.03;20.90;;;11.20;99.90;;;;;;5092514;28;20439;-39
2023/02/12 09:23:37;;;;;;;22.23;19.93;;;11.40;99.90;;;;;;5093909;28;20183;-39
2023/02/12 09:26:14;;;;;;;19.70;17.60;;;11.60;60.70;;;;;;5096154;28;20824;-39
2023/02/12 09:28:40;;;;;;;20.70;17.57;;;11.70;27.30;;;;;;5094076;28;20579;-41
2023/02/12 09:31:07;;;;;;;20.40;16.23;;;11.80;3.50;;;;;;5094700;28;20792;-39
2023/02/12 09:33:34;;;;;;;18.57;16.27;;;11.90;1.00;;;;;;5093494;28;20429;-40
2023/02/12 09:36:06;;;;;;;17.23;15.43;;;12.00;1.00;;;;;;5094017;28;20650;-40
2023/02/12 09:38:32;;;;;;;16.33;14.53;;;12.10;1.00;;;;;;5092611;28;20426;-39
2023/02/12 09:41:04;;;;;;;15.90;13.67;;;12.20;1.00;;;;;;5092704;28;20441;-40
2023/02/12 09:43:55;;;;;;;14.60;13.00;;;12.30;1.00;;;;;;5092755;28;20449;-42
2023/02/12 09:46:31;;;;;;;11.50;10.30;;;12.40;1.00;;;;;;5091527;28;20839;-41
2023/02/12 09:49:28;;;;;;;11.50;10.40;;;12.50;1.00;;;;;;5091377;28;20838;-39
2023/02/12 09:51:54;;;;;;;10.07;9.07;;;12.60;1.00;;;;;;5063963;28;20756;-44
2023/02/12 09:54:24;;;;;;;9.67;8.67;;;12.60;1.00;;;;;;5090612;28;20433;-43
2023/02/12 09:56:58;;;;;;;7.60;6.80;;;12.70;1.00;;;;;;5093620;28;20681;-39
2023/02/12 09:59:40;;;;;;;6.60;6.00;;;12.70;1.00;;;;;;5093801;28;20422;-40
2023/02/12 10:02:13;;;;;;;6.10;5.50;;;12.70;1.00;;;;;;5092788;28;20513;-39
2023/02/12 10:04:38;;;;;;;8.10;7.30;;;12.80;1.00;;;;;;5075015;28;20525;-43
2023/02/12 10:07:29;;;;;;;7.27;6.20;;;12.80;1.00;;;;;;5093201;28;20568;-41
2023/02/12 10:10:10;;;;;;;7.77;6.33;;;12.80;1.00;;;;;;5092324;28;20459;-40
2023/02/12 10:12:43;;;;;;;6.33;5.73;;;12.80;1.00;;;;;;5090372;28;20481;-41
2023/02/12 10:15:26;;;;;;;7.17;6.13;;;12.90;1.00;;;;;;5089962;28;20998;-41
2023/02/12 10:18:31;;;;;;;7.10;6.17;;;12.90;1.00;;;;;;5073061;28;20693;-40
2023/02/12 10:21:08;;;;;;;6.90;6.20;;;13.00;1.00;;;;;;5082293;28;20430;-40
2023/02/12 10:23:43;;;;;;;9.33;8.00;;;13.10;1.00;;;;;;5090304;28;20930;-41
2023/02/12 10:26:31;;;;;;;7.63;6.83;;;13.30;1.00;;;;;;5093676;28;20490;-40
2023/02/12 10:29:18;;;;;;;7.13;6.43;;;13.40;1.00;;;;;;5087455;28;20505;-45
2023/02/12 10:32:05;;;;;;;7.03;6.27;;;13.60;1.00;;;;;;5095399;28;20414;-39
2023/02/12 10:34:33;;;;;;;5.40;4.90;;;13.80;1.00;;;;;;5095782;28;20411;-40
2023/02/12 10:37:27;;;;;;;6.67;5.97;;;14.00;1.00;;;;;;5095339;28;20414;-40
2023/02/12 10:40:00;;;;;;;9.53;7.03;;;14.10;1.00;;;;;;5087284;28;20441;-41
2023/02/12 10:42:46;;;;;;;8.90;7.80;;;14.20;1.00;;;;;;5094765;28;20468;-41
2023/02/12 10:45:13;;;;;;;8.60;7.80;;;14.20;1.00;;;;;;5095735;28;20433;-40
2023/02/12 10:47:39;;;;;;;8.10;7.30;;;14.30;1.00;;;;;;5093828;28;20497;-41
2023/02/12 10:50:15;;;;;;;8.53;7.73;;;14.30;1.00;;;;;;5097231;28;20433;-40
2023/02/12 10:52:40;;;;;;;7.60;6.80;;;14.30;1.00;;;;;;5098082;28;20172;-41
2023/02/12 10:55:29;;;;;;;8.97;8.07;;;14.30;1.00;;;;;;5097059;28;20418;-40
2023/02/12 10:57:56;;;;;;;8.50;7.67;;;14.40;1.00;;;;;;5095664;28;20180;-40
2023/02/12 11:00:36;;;;;;;8.60;7.70;;;14.50;1.00;;;;;;5097077;28;20438;-40
2023/02/12 11:03:11;;;;;;;7.70;6.90;;;14.60;1.00;;;;;;5096228;28;20789;-40
2023/02/12 11:05:40;;;;;;;7.10;6.23;;;14.70;1.00;;;;;;5095633;28;20680;-40
2023/02/12 11:08:06;;;;;;;7.10;6.40;;;14.70;1.00;;;;;;5094968;28;20842;-40
2023/02/12 11:10:39;;;;;;;7.53;6.80;;;14.80;1.00;;;;;;5076457;28;20848;-41
2023/02/12 11:13:06;;;;;;;8.83;7.93;;;14.90;1.00;;;;;;5093735;28;20418;-41
2023/02/12 11:15:52;;;;;;;8.60;7.80;;;14.90;1.00;;;;;;5094509;28;20418;-43
2023/02/12 11:18:26;;;;;;;9.03;8.17;;;15.00;1.00;;;;;;5097703;28;20422;-41
2023/02/12 11:20:57;;;;;;;7.97;7.17;;;15.00;1.00;;;;;;5094795;28;20826;-40
2023/02/12 11:23:36;;;;;;;7.43;6.73;;;15.00;1.00;;;;;;5092644;28;20429;-41
2023/02/12 11:26:21;;;;;;;6.60;5.90;;;14.90;1.00;;;;;;5093323;28;20565;-41
2023/02/12 11:28:58;;;;;;;6.70;6.00;;;14.90;1.00;;;;;;5090254;28;20554;-44
2023/02/12 11:31:29;;;;;;;3.40;3.10;;;14.90;1.00;;;;;;5094971;28;20742;-43
2023/02/12 11:34:06;;;;;;;4.07;3.60;;;15.30;99.90;;;;;;5095234;28;20427;-44
2023/02/12 11:36:35;;;;;;;9.40;3.33;;;15.60;99.90;;;;;;5096169;28;20399;-42
2023/02/12 11:39:01;;;;;;;3.90;3.50;;;16.00;99.90;;;;;;5093657;28;20447;-44
2023/02/12 11:41:35;;;;;;;5.97;3.40;;;16.30;71.70;;;;;;5092767;28;20492;-41
2023/02/12 11:44:11;;;;;;;5.80;5.20;;;16.60;1.00;;;;;;5077804;28;20418;-42
2023/02/12 11:46:37;;;;;;;6.93;6.30;;;16.60;1.00;;;;;;5077260;28;20700;-42
2023/02/12 11:49:04;;;;;;;7.67;6.87;;;16.50;1.00;;;;;;5093827;28;20559;-41
2023/02/12 11:51:30;;;;;;;7.90;7.20;;;16.20;1.00;;;;;;5094488;28;20410;-41
2023/02/12 11:53:59;;;;;;;8.10;7.30;;;16.00;1.00;;;;;;5095233;28;20438;-40
2023/02/12 11:56:42;;;;;;;8.43;7.60;;;15.80;1.00;;;;;;5095015;28;20488;-41
2023/02/12 11:59:20;;;;;;;9.07;8.13;;;15.50;1.00;;;;;;5096126;28;20435;-41
2023/02/12 12:01:47;;;;;;;9.80;8.77;;;15.30;1.00;;;;;;5094824;28;20493;-43
2023/02/12 12:04:18;;;;;;;9.63;8.73;;;15.10;1.00;;;;;;5094105;28;20534;-41
2023/02/12 12:07:06;;;;;;;10.30;8.80;;;14.80;1.00;;;;;;5095884;28;20824;-41
2023/02/12 12:09:48;;;;;;;9.57;8.57;;;14.60;1.00;;;;;;5097179;28;20859;-42
2023/02/12 12:12:25;;;;;;;10.90;8.97;;;14.40;1.00;;;;;;5096900;28;20681;-41
2023/02/12 12:20:56;;;;;;;9.47;8.47;;;14.20;1.00;;;;;;5093300;28;20891;-41
2023/02/12 12:23:34;;;;;;;7.60;6.90;;;14.20;1.00;;;;;;5093848;28;20461;-40
2023/02/12 12:26:12;;;;;;;10.30;9.20;;;14.30;1.00;;;;;;5091541;28;20442;-40
2023/02/12 12:28:51;;;;;;;8.83;7.40;;;14.30;1.00;;;;;;5092760;28;20535;-41
2023/02/12 12:31:31;;;;;;;8.37;7.47;;;14.40;1.00;;;;;;5091707;28;20638;-42
2023/02/12 12:34:02;;;;;;;8.20;7.40;;;14.50;1.00;;;;;;5093423;28;20411;-42
2023/02/12 12:36:56;;;;;;;7.90;7.10;;;14.50;1.00;;;;;;5091929;28;20406;-39
2023/02/12 12:39:43;;;;;;;7.13;6.43;;;14.60;1.00;;;;;;5092505;28;20705;-41
2023/02/12 12:42:11;;;;;;;7.33;6.57;;;14.60;1.00;;;;;;5091440;28;20520;-39
2023/02/12 12:45:04;;;;;;;8.57;7.30;;;14.60;1.00;;;;;;5092643;28;20423;-40
2023/02/12 12:47:52;;;;;;;5.87;5.27;;;14.70;1.00;;;;;;5095120;28;20470;-43
2023/02/12 12:50:27;;;;;;;6.80;6.17;;;14.80;1.00;;;;;;5094035;28;20452;-41
2023/02/12 12:53:01;;;;;;;7.60;6.87;;;14.90;1.00;;;;;;5093411;28;20423;-40
2023/02/12 12:55:45;;;;;;;6.83;6.13;;;15.00;1.00;;;;;;5093411;28;20405;-41
2023/02/12 12:58:46;;;;;;;7.90;6.97;;;15.10;1.00;;;;;;5090176;28;20485;-41
2023/02/12 13:01:34;;;;;;;9.10;6.77;;;15.30;1.00;;;;;;5073774;28;20414;-41
2023/02/12 13:04:17;;;;;;;5.73;4.00;;;15.40;1.00;;;;;;5092379;28;20433;-41
2023/02/12 13:07:19;;;;;;;5.33;4.27;;;15.70;1.00;;;;;;5092153;28;20418;-41
2023/02/12 13:10:03;;;;;;;5.73;3.30;;;16.10;1.00;;;;;;5090335;28;20398;-41
2023/02/12 13:12:38;;;;;;;5.43;3.83;;;16.50;1.00;;;;;;5091788;28;20430;-41
2023/02/12 13:15:16;;;;;;;5.87;4.17;;;16.70;1.00;;;;;;5093797;28;20407;-40
2023/02/12 13:17:46;;;;;;;4.80;4.30;;;17.00;1.00;;;;;;5095049;28;20475;-41